createdAt,value
2023-05-16T00:02:08.961Z,8.00
2023-05-16T00:04:36.779Z,8.00
2023-05-16T00:07:03.783Z,8.00
2023-05-16T00:09:30.618Z,7.90
2023-05-16T00:11:58.019Z,7.90
2023-05-16T00:14:26.365Z,7.90
2023-05-16T00:16:54.535Z,7.80
2023-05-16T00:19:21.475Z,7.80
2023-05-16T00:21:48.362Z,7.80
2023-05-16T00:24:15.699Z,7.80
2023-05-16T00:26:42.569Z,7.80
2023-05-16T00:29:11.806Z,7.80
2023-05-16T00:31:38.656Z,7.80
2023-05-16T00:34:05.564Z,7.70
2023-05-16T00:36:33.047Z,7.70
2023-05-16T00:38:59.743Z,7.70
2023-05-16T00:41:26.948Z,7.70
2023-05-16T00:43:54.089Z,7.70
2023-05-16T00:46:21.169Z,7.70
2023-05-16T00:48:50.763Z,7.70
2023-05-16T00:51:18.397Z,7.80
2023-05-16T00:53:45.504Z,7.70
2023-05-16T00:56:12.519Z,7.70
2023-05-16T00:58:39.331Z,7.70
2023-05-16T01:01:06.254Z,7.70
2023-05-16T01:03:33.375Z,7.70
2023-05-16T01:06:00.384Z,7.70
2023-05-16T01:08:28.244Z,7.70
2023-05-16T01:11:16.305Z,7.70
2023-05-16T01:14:01.165Z,7.70
2023-05-16T01:16:54.352Z,7.70
2023-05-16T01:19:35.357Z,7.70
2023-05-16T01:22:17.263Z,7.70
2023-05-16T01:24:50.761Z,7.70
2023-05-16T01:27:18.154Z,7.70
2023-05-16T01:29:45.038Z,7.70
2023-05-16T01:32:11.998Z,7.70
2023-05-16T01:34:38.902Z,7.60
2023-05-16T01:37:06.064Z,7.60
2023-05-16T01:39:47.837Z,7.50
2023-05-16T01:42:16.372Z,7.40
2023-05-16T01:44:43.281Z,7.40
2023-05-16T01:47:13.686Z,7.40
2023-05-16T01:50:06.140Z,7.30
2023-05-16T01:52:45.365Z,7.30
2023-05-16T01:55:29.286Z,7.30
2023-05-16T01:57:56.789Z,7.30
2023-05-16T02:00:23.844Z,7.20
2023-05-16T02:02:50.617Z,7.20
2023-05-16T02:05:17.565Z,7.20
2023-05-16T02:07:44.666Z,7.20
2023-05-16T02:10:12.404Z,7.10
2023-05-16T02:12:39.169Z,7.10
2023-05-16T02:15:07.063Z,7.10
2023-05-16T02:17:34.036Z,7.10
2023-05-16T02:20:09.415Z,7.10
2023-05-16T02:22:39.850Z,7.10
2023-05-16T02:25:08.766Z,7.00
2023-05-16T02:27:36.391Z,7.00
2023-05-16T02:30:04.810Z,7.00
2023-05-16T02:32:32.891Z,7.00
2023-05-16T02:34:59.881Z,7.10
2023-05-16T02:37:27.067Z,7.10
2023-05-16T02:39:53.903Z,7.10
2023-05-16T02:42:20.933Z,7.10
2023-05-16T02:44:47.824Z,7.10
2023-05-16T02:47:14.764Z,7.00
2023-05-16T02:49:41.711Z,7.00
2023-05-16T02:52:08.602Z,7.00
2023-05-16T02:54:35.764Z,7.00
2023-05-16T02:57:02.743Z,7.00
2023-05-16T02:59:29.584Z,7.00
2023-05-16T03:01:56.532Z,7.00
2023-05-16T03:04:23.832Z,7.10
2023-05-16T03:06:51.326Z,7.10
2023-05-16T03:09:18.731Z,7.10
2023-05-16T03:11:46.029Z,7.00
2023-05-16T03:14:12.957Z,7.00
2023-05-16T03:16:41.725Z,7.00
2023-05-16T03:19:08.656Z,7.00
2023-05-16T03:21:35.586Z,7.10
2023-05-16T03:24:06.268Z,7.10
2023-05-16T03:26:33.204Z,7.10
2023-05-16T03:29:00.109Z,7.00
2023-05-16T03:31:38.273Z,7.10
2023-05-16T03:34:05.095Z,7.10
2023-05-16T03:36:31.856Z,7.10
2023-05-16T03:38:58.749Z,7.10
2023-05-16T03:41:26.645Z,7.10
2023-05-16T03:43:53.495Z,7.10
2023-05-16T03:46:20.483Z,7.20
2023-05-16T03:48:47.345Z,7.20
2023-05-16T03:51:14.344Z,7.20
2023-05-16T03:53:41.581Z,7.20
2023-05-16T03:56:08.533Z,7.20
2023-05-16T03:58:35.599Z,7.20
2023-05-16T04:01:02.660Z,7.20
2023-05-16T04:03:30.318Z,7.20
2023-05-16T04:05:58.245Z,7.20
2023-05-16T04:08:25.761Z,7.20
2023-05-16T04:10:52.622Z,7.20
2023-05-16T04:13:19.408Z,7.20
2023-05-16T04:15:49.099Z,7.20
2023-05-16T04:18:18.617Z,7.20
2023-05-16T04:20:47.810Z,7.30
2023-05-16T04:23:14.618Z,7.30
2023-05-16T04:25:44.804Z,7.40
2023-05-16T04:28:12.029Z,7.40
2023-05-16T04:30:38.965Z,7.40
2023-05-16T04:33:06.372Z,7.40
2023-05-16T04:35:33.824Z,7.50
2023-05-16T04:38:01.351Z,7.50
2023-05-16T04:40:28.448Z,7.60
2023-05-16T04:42:55.659Z,7.60
2023-05-16T04:45:25.730Z,7.70
2023-05-16T04:47:56.290Z,7.70
2023-05-16T04:50:23.095Z,7.80
2023-05-16T04:52:49.960Z,7.80
2023-05-16T04:55:16.759Z,7.80
2023-05-16T04:57:43.751Z,7.90
2023-05-16T05:00:19.809Z,8.00
2023-05-16T05:02:48.000Z,8.00
2023-05-16T05:05:15.100Z,8.10
2023-05-16T05:07:42.907Z,8.10
2023-05-16T05:10:11.063Z,8.20
2023-05-16T05:12:41.116Z,8.20
2023-05-16T05:15:08.888Z,8.20
2023-05-16T05:17:38.691Z,8.20
2023-05-16T05:20:06.949Z,8.30
2023-05-16T05:22:34.338Z,8.40
2023-05-16T05:25:01.220Z,8.50
2023-05-16T05:27:31.447Z,8.60
2023-05-16T05:29:58.310Z,8.70
2023-05-16T05:32:25.222Z,8.80
2023-05-16T05:34:52.701Z,8.90
2023-05-16T05:37:19.526Z,9.10
2023-05-16T05:39:49.655Z,9.20
2023-05-16T05:42:16.568Z,9.30
2023-05-16T05:44:43.439Z,9.40
2023-05-16T05:47:10.369Z,9.50
2023-05-16T05:49:37.370Z,9.50
2023-05-16T05:52:04.590Z,9.60
2023-05-16T05:54:31.468Z,9.70
2023-05-16T05:56:58.780Z,9.70
2023-05-16T05:59:26.120Z,9.80
2023-05-16T06:01:53.241Z,9.80
2023-05-16T06:04:20.874Z,9.90
2023-05-16T06:06:48.212Z,9.90
2023-05-16T06:09:15.175Z,9.90
2023-05-16T06:11:43.380Z,9.90
2023-05-16T06:14:10.166Z,10.00
2023-05-16T06:16:36.958Z,10.00
2023-05-16T06:19:04.456Z,10.10
2023-05-16T06:21:31.333Z,10.20
2023-05-16T06:23:58.079Z,10.10
2023-05-16T06:26:24.888Z,10.20
2023-05-16T06:28:51.841Z,10.20
2023-05-16T06:31:18.686Z,10.30
2023-05-16T06:33:45.929Z,10.30
2023-05-16T06:36:12.674Z,10.40
2023-05-16T06:38:39.490Z,10.50
2023-05-16T06:41:06.298Z,10.50
2023-05-16T06:43:33.118Z,10.60
2023-05-16T06:45:59.892Z,10.60
2023-05-16T06:48:26.743Z,10.70
2023-05-16T06:50:53.634Z,10.70
2023-05-16T06:53:20.853Z,10.70
2023-05-16T06:55:48.024Z,10.60
2023-05-16T06:58:15.194Z,10.70
2023-05-16T07:00:42.104Z,10.70
2023-05-16T07:03:09.055Z,10.60
2023-05-16T07:05:35.949Z,10.60
2023-05-16T07:08:03.874Z,10.60
2023-05-16T07:10:31.913Z,10.70
2023-05-16T07:13:00.439Z,10.70
2023-05-16T07:15:27.620Z,10.70
2023-05-16T07:17:54.534Z,10.70
2023-05-16T07:20:21.509Z,10.70
2023-05-16T07:22:48.265Z,10.80
2023-05-16T07:25:16.231Z,10.80
2023-05-16T07:27:44.927Z,10.90
2023-05-16T07:30:13.191Z,10.90
2023-05-16T07:32:41.641Z,11.00
2023-05-16T07:35:09.573Z,10.90
2023-05-16T07:37:36.473Z,11.00
2023-05-16T07:40:03.889Z,11.00
2023-05-16T07:42:31.787Z,11.00
2023-05-16T07:44:58.584Z,11.10
2023-05-16T07:47:25.942Z,11.20
2023-05-16T07:49:52.964Z,11.20
2023-05-16T07:52:19.995Z,11.30
2023-05-16T07:54:47.365Z,11.40
2023-05-16T07:57:15.531Z,11.50
2023-05-16T07:59:43.398Z,11.60
2023-05-16T08:02:10.997Z,11.70
2023-05-16T08:04:38.737Z,11.80
2023-05-16T08:07:06.148Z,12.00
2023-05-16T08:09:33.293Z,12.10
2023-05-16T08:12:03.663Z,12.10
2023-05-16T08:14:32.537Z,12.10
2023-05-16T08:17:00.592Z,12.10
2023-05-16T08:19:27.883Z,12.10
2023-05-16T08:21:55.033Z,12.20
2023-05-16T08:24:21.824Z,12.30
2023-05-16T08:26:48.663Z,12.30
2023-05-16T08:29:15.552Z,12.30
2023-05-16T08:31:42.472Z,12.50
2023-05-16T08:34:15.962Z,12.50
2023-05-16T08:36:45.646Z,12.60
2023-05-16T08:39:12.755Z,12.70
2023-05-16T08:41:45.164Z,12.80
2023-05-16T08:44:13.246Z,12.90
2023-05-16T08:46:41.677Z,13.00
2023-05-16T08:49:12.414Z,13.00
2023-05-16T08:51:40.273Z,13.10
2023-05-16T08:54:12.215Z,13.20
2023-05-16T08:56:39.392Z,13.30
2023-05-16T08:59:06.579Z,13.30
2023-05-16T09:01:33.992Z,13.40
2023-05-16T09:04:02.411Z,13.40
2023-05-16T09:06:29.328Z,13.20
2023-05-16T09:08:57.677Z,13.20
2023-05-16T09:11:24.549Z,13.10
2023-05-16T09:13:51.387Z,13.10
2023-05-16T09:16:20.100Z,13.10
2023-05-16T09:19:00.813Z,13.20
2023-05-16T09:21:36.939Z,13.40
2023-05-16T09:24:05.029Z,13.60
2023-05-16T09:26:33.700Z,13.80
2023-05-16T09:29:02.361Z,13.90
2023-05-16T09:31:38.398Z,14.00
2023-05-16T09:34:09.255Z,13.90
2023-05-16T09:36:36.860Z,14.00
2023-05-16T09:39:04.192Z,14.00
2023-05-16T09:41:35.230Z,14.10
2023-05-16T09:44:08.169Z,14.20
2023-05-16T09:46:36.248Z,14.10
2023-05-16T09:49:03.236Z,14.10
2023-05-16T09:51:30.039Z,13.90
2023-05-16T09:53:59.482Z,13.90
2023-05-16T09:56:26.410Z,13.70
2023-05-16T09:58:53.225Z,13.60
2023-05-16T10:01:20.636Z,13.60
2023-05-16T10:03:47.695Z,13.60
2023-05-16T10:06:16.685Z,13.70
2023-05-16T10:08:47.379Z,13.70
2023-05-16T10:11:15.267Z,13.60
2023-05-16T10:13:42.290Z,13.70
2023-05-16T10:16:12.469Z,13.90
2023-05-16T10:18:40.781Z,14.00
2023-05-16T10:21:16.918Z,14.10
2023-05-16T10:23:47.482Z,14.30
2023-05-16T10:26:16.863Z,14.40
2023-05-16T10:28:44.199Z,14.40
2023-05-16T10:31:11.965Z,14.40
2023-05-16T10:33:39.778Z,14.50
2023-05-16T10:36:10.703Z,14.60
2023-05-16T10:38:39.015Z,14.50
2023-05-16T10:41:09.936Z,14.70
2023-05-16T10:43:36.848Z,14.90
2023-05-16T10:46:05.874Z,15.00
2023-05-16T10:48:38.907Z,15.10
2023-05-16T10:51:23.953Z,15.30
2023-05-16T10:53:55.240Z,15.40
2023-05-16T10:56:27.298Z,15.40
2023-05-16T10:58:56.063Z,15.50
2023-05-16T11:01:30.406Z,15.40
2023-05-16T11:03:57.322Z,15.50
2023-05-16T11:06:28.930Z,15.30
2023-05-16T11:09:10.074Z,15.10
2023-05-16T11:11:40.703Z,15.10
2023-05-16T11:14:08.250Z,15.30
2023-05-16T11:16:36.387Z,15.30
2023-05-16T11:19:07.313Z,15.30
2023-05-16T11:22:15.610Z,15.30
2023-05-16T11:24:51.528Z,15.30
2023-05-16T11:27:33.305Z,15.30
2023-05-16T11:30:21.915Z,15.30
2023-05-16T11:32:50.669Z,15.10
2023-05-16T11:35:18.877Z,15.00
2023-05-16T11:37:47.179Z,14.80
2023-05-16T11:40:15.721Z,14.60
2023-05-16T11:42:44.791Z,14.50
2023-05-16T11:45:16.855Z,14.30
2023-05-16T11:47:46.217Z,14.10
2023-05-16T11:50:21.242Z,14.00
2023-05-16T11:52:53.835Z,14.10
2023-05-16T11:55:36.758Z,14.20
2023-05-16T11:58:08.913Z,14.30
2023-05-16T12:00:35.783Z,14.20
2023-05-16T12:03:05.829Z,14.20
2023-05-16T12:05:35.070Z,14.30
2023-05-16T12:08:02.887Z,14.50
2023-05-16T12:10:34.338Z,14.40
2023-05-16T12:13:01.970Z,14.40
2023-05-16T12:15:29.288Z,14.60
2023-05-16T12:17:57.134Z,14.60
2023-05-16T12:20:26.075Z,14.60
2023-05-16T12:22:53.118Z,14.60
2023-05-16T12:25:24.336Z,14.60
2023-05-16T12:27:52.815Z,14.50
2023-05-16T12:30:21.660Z,14.60
2023-05-16T12:33:00.071Z,14.80
2023-05-16T12:35:31.224Z,14.80
2023-05-16T12:37:58.040Z,14.80
2023-05-16T12:40:29.043Z,14.70
2023-05-16T12:42:56.322Z,14.50
2023-05-16T12:45:23.669Z,14.50
2023-05-16T12:47:51.129Z,14.10
2023-05-16T12:50:18.106Z,14.00
2023-05-16T12:52:52.954Z,13.90
2023-05-16T12:55:21.215Z,13.80
2023-05-16T12:57:49.134Z,13.60
2023-05-16T13:00:21.170Z,13.60
2023-05-16T13:02:49.120Z,13.30
2023-05-16T13:05:16.383Z,13.30
2023-05-16T13:07:43.977Z,13.30
2023-05-16T13:10:12.221Z,13.10
2023-05-16T13:12:40.143Z,12.90
2023-05-16T13:17:48.225Z,12.80
2023-05-16T13:20:15.524Z,12.70
2023-05-16T13:22:44.995Z,12.60
2023-05-16T13:25:12.254Z,12.50
2023-05-16T13:27:39.289Z,12.40
2023-05-16T13:30:07.444Z,12.20
2023-05-16T13:32:34.377Z,12.10
2023-05-16T13:35:01.208Z,12.00
2023-05-16T13:37:28.096Z,12.00
2023-05-16T13:39:56.045Z,12.00
2023-05-16T13:42:22.960Z,12.00
2023-05-16T13:44:50.053Z,12.00
2023-05-16T13:47:16.982Z,12.00
2023-05-16T13:49:43.898Z,12.10
2023-05-16T13:52:11.034Z,12.10
2023-05-16T13:54:39.687Z,12.10
2023-05-16T13:57:07.350Z,12.20
2023-05-16T14:02:04.673Z,12.10
2023-05-16T14:04:31.721Z,12.10
2023-05-16T14:06:58.708Z,12.20
2023-05-16T14:09:25.534Z,12.20
2023-05-16T14:11:52.566Z,12.20
2023-05-16T14:14:19.365Z,12.10
2023-05-16T14:16:49.066Z,12.20
2023-05-16T14:19:18.947Z,12.20
2023-05-16T14:21:46.573Z,12.30
2023-05-16T14:24:13.566Z,12.30
2023-05-16T14:26:41.346Z,12.30
2023-05-16T14:29:08.391Z,12.30
2023-05-16T14:31:36.665Z,12.20
2023-05-16T14:34:06.666Z,12.10
2023-05-16T14:36:33.570Z,12.00
2023-05-16T14:39:00.734Z,12.00
2023-05-16T14:41:27.775Z,11.80
2023-05-16T14:43:58.426Z,11.80
2023-05-16T14:46:25.282Z,11.70
2023-05-16T14:48:52.803Z,11.70
2023-05-16T14:51:19.623Z,11.80
2023-05-16T14:53:49.467Z,11.80
2023-05-16T14:56:16.567Z,11.70
2023-05-16T14:58:43.707Z,11.70
2023-05-16T15:01:10.884Z,11.70
2023-05-16T15:03:53.803Z,11.50
2023-05-16T15:06:22.538Z,11.40
2023-05-16T15:08:49.480Z,11.50
2023-05-16T15:11:16.372Z,11.50
2023-05-16T15:13:43.263Z,11.50
2023-05-16T15:16:10.424Z,11.50
2023-05-16T15:18:37.660Z,11.50
2023-05-16T15:21:04.726Z,11.50
2023-05-16T15:23:31.824Z,11.50
2023-05-16T15:25:58.695Z,11.40
2023-05-16T15:28:25.755Z,11.30
2023-05-16T15:30:52.703Z,11.30
2023-05-16T15:33:19.956Z,11.40
2023-05-16T15:35:46.946Z,11.40
2023-05-16T15:38:14.111Z,11.40
2023-05-16T15:40:41.098Z,11.50
2023-05-16T15:43:08.470Z,11.50
2023-05-16T15:45:37.288Z,11.50
2023-05-16T15:48:06.036Z,11.50
2023-05-16T15:50:32.947Z,11.50
2023-05-16T15:53:00.088Z,11.50
2023-05-16T15:55:27.218Z,11.50
2023-05-16T15:57:57.404Z,11.50
2023-05-16T16:00:27.096Z,11.40
2023-05-16T16:02:54.287Z,11.40
2023-05-16T16:05:21.368Z,11.40
2023-05-16T16:07:48.253Z,11.40
2023-05-16T16:10:15.400Z,11.30
2023-05-16T16:12:42.387Z,11.30
2023-05-16T16:15:12.448Z,11.30
2023-05-16T16:17:42.036Z,11.30
2023-05-16T16:20:09.296Z,11.30
2023-05-16T16:22:40.433Z,11.30
2023-05-16T16:25:07.865Z,11.30
2023-05-16T16:27:34.763Z,11.20
2023-05-16T16:30:01.805Z,11.20
2023-05-16T16:32:28.747Z,11.20
2023-05-16T16:34:56.182Z,11.20
2023-05-16T16:37:23.278Z,11.20
2023-05-16T16:39:52.731Z,11.20
2023-05-16T16:42:19.594Z,11.10
2023-05-16T16:44:52.494Z,11.10
2023-05-16T16:47:19.912Z,11.00
2023-05-16T16:49:46.885Z,11.00
2023-05-16T16:52:13.978Z,11.00
2023-05-16T16:54:40.819Z,11.00
2023-05-16T16:57:07.789Z,11.00
2023-05-16T16:59:34.987Z,11.00
2023-05-16T17:02:01.947Z,11.00
2023-05-16T17:04:28.763Z,11.00
2023-05-16T17:06:55.905Z,11.10
2023-05-16T17:09:23.578Z,11.10
2023-05-16T17:11:50.838Z,11.00
2023-05-16T17:14:17.823Z,11.00
2023-05-16T17:16:44.973Z,11.10
2023-05-16T17:19:11.912Z,11.00
2023-05-16T17:21:40.739Z,11.10
2023-05-16T17:24:08.219Z,11.00
2023-05-16T17:26:35.564Z,11.10
2023-05-16T17:29:04.280Z,11.00
2023-05-16T17:31:31.255Z,11.00
2023-05-16T17:33:58.507Z,11.00
2023-05-16T17:36:25.379Z,11.00
2023-05-16T17:38:52.445Z,11.00
2023-05-16T17:41:20.616Z,11.00
2023-05-16T17:43:53.611Z,11.00
2023-05-16T17:46:20.730Z,11.00
2023-05-16T17:48:47.782Z,11.00
2023-05-16T17:51:14.854Z,10.90
2023-05-16T17:53:43.069Z,10.90
2023-05-16T17:56:10.256Z,10.80
2023-05-16T17:58:37.134Z,10.80
2023-05-16T18:01:05.142Z,10.70
2023-05-16T18:03:32.167Z,10.60
2023-05-16T18:05:59.452Z,10.60
2023-05-16T18:08:26.424Z,10.60
2023-05-16T18:10:53.325Z,10.50
2023-05-16T18:13:22.205Z,10.50
2023-05-16T18:15:49.444Z,10.50
2023-05-16T18:18:17.580Z,10.50
2023-05-16T18:20:46.129Z,10.50
2023-05-16T18:23:13.196Z,10.40
2023-05-16T18:25:40.131Z,10.40
2023-05-16T18:28:07.792Z,10.40
2023-05-16T18:30:37.038Z,10.40
2023-05-16T18:33:04.909Z,10.30
2023-05-16T18:35:31.825Z,10.30
2023-05-16T18:37:58.810Z,10.30
2023-05-16T18:40:26.038Z,10.30
2023-05-16T18:42:52.886Z,10.20
2023-05-16T18:45:20.001Z,10.20
2023-05-16T18:47:47.119Z,10.20
2023-05-16T18:50:14.183Z,10.20
2023-05-16T18:52:41.569Z,10.10
2023-05-16T18:55:08.895Z,10.10
2023-05-16T18:57:35.922Z,10.10
2023-05-16T19:00:06.780Z,10.00
2023-05-16T19:02:41.702Z,10.00
2023-05-16T19:05:10.817Z,10.00
2023-05-16T19:07:37.926Z,10.00
2023-05-16T19:10:05.071Z,10.00
2023-05-16T19:12:31.910Z,10.00
2023-05-16T19:17:33.482Z,10.00
2023-05-16T19:20:00.564Z,9.90
2023-05-16T19:22:27.568Z,10.00
2023-05-16T19:24:54.420Z,10.00
2023-05-16T19:27:21.196Z,9.90
2023-05-16T19:29:49.239Z,9.90
2023-05-16T19:32:16.072Z,9.90
2023-05-16T19:34:43.077Z,9.90
2023-05-16T19:37:09.912Z,9.90
2023-05-16T19:39:36.880Z,9.90
2023-05-16T19:42:07.350Z,9.90
2023-05-16T19:44:34.876Z,9.80
2023-05-16T19:47:01.850Z,9.80
2023-05-16T19:49:29.140Z,9.80
2023-05-16T19:51:55.911Z,9.70
2023-05-16T19:54:22.713Z,9.70
2023-05-16T19:56:49.569Z,9.70
2023-05-16T19:59:16.341Z,9.60
2023-05-16T20:01:43.129Z,9.60
2023-05-16T20:04:10.197Z,9.60
2023-05-16T20:06:37.242Z,9.60
2023-05-16T20:09:04.147Z,9.60
2023-05-16T20:11:31.088Z,9.60
2023-05-16T20:14:00.051Z,9.50
2023-05-16T20:16:27.597Z,9.50
2023-05-16T20:18:54.712Z,9.50
2023-05-16T20:21:21.655Z,9.50
2023-05-16T20:23:48.487Z,9.50
2023-05-16T20:26:15.716Z,9.40
2023-05-16T20:28:42.518Z,9.40
2023-05-16T20:31:09.649Z,9.30
2023-05-16T20:33:36.640Z,9.30
2023-05-16T20:36:03.715Z,9.20
2023-05-16T20:38:30.557Z,9.20
2023-05-16T20:40:57.471Z,9.10
2023-05-16T20:43:26.495Z,9.10
2023-05-16T20:45:53.554Z,9.10
2023-05-16T20:48:21.016Z,9.00
2023-05-16T20:50:48.026Z,9.00
2023-05-16T20:53:14.967Z,8.90
2023-05-16T20:55:41.779Z,8.90
2023-05-16T20:58:08.678Z,8.90
2023-05-16T21:00:35.691Z,8.90
2023-05-16T21:03:02.809Z,8.90
2023-05-16T21:05:29.823Z,8.90
2023-05-16T21:07:56.661Z,8.80
2023-05-16T21:10:25.039Z,8.80
2023-05-16T21:12:51.872Z,8.80
2023-05-16T21:15:19.444Z,8.80
2023-05-16T21:17:47.830Z,8.80
2023-05-16T21:20:14.745Z,8.80
2023-05-16T21:22:42.636Z,8.70
2023-05-16T21:25:09.711Z,8.70
2023-05-16T21:27:36.536Z,8.70
2023-05-16T21:30:04.050Z,8.70
2023-05-16T21:32:32.613Z,8.70
2023-05-16T21:35:01.214Z,8.70
2023-05-16T21:37:30.021Z,8.70
2023-05-16T21:39:56.800Z,8.70
2023-05-16T21:42:23.776Z,8.70
2023-05-16T21:44:50.759Z,8.70
2023-05-16T21:47:17.635Z,8.70
2023-05-16T21:49:44.481Z,8.70
2023-05-16T21:52:11.349Z,8.70
2023-05-16T21:54:38.095Z,8.70
2023-05-16T21:57:06.483Z,8.70
2023-05-16T21:59:33.415Z,8.70
2023-05-16T22:02:00.192Z,8.70
2023-05-16T22:04:27.191Z,8.70
2023-05-16T22:06:54.149Z,8.60
2023-05-16T22:09:21.077Z,8.60
2023-05-16T22:11:47.961Z,8.70
2023-05-16T22:14:14.796Z,8.60
2023-05-16T22:16:41.661Z,8.70
2023-05-16T22:19:09.059Z,8.60
2023-05-16T22:21:36.126Z,8.60
2023-05-16T22:24:03.205Z,8.60
2023-05-16T22:26:30.165Z,8.60
2023-05-16T22:28:57.061Z,8.60
2023-05-16T22:31:23.889Z,8.60
2023-05-16T22:33:50.814Z,8.60
2023-05-16T22:36:21.526Z,8.60
2023-05-16T22:38:48.295Z,8.60
2023-05-16T22:41:15.231Z,8.60
2023-05-16T22:43:42.280Z,8.60
2023-05-16T22:46:09.219Z,8.60
2023-05-16T22:48:36.268Z,8.60
2023-05-16T22:51:03.474Z,8.60
2023-05-16T22:53:30.259Z,8.60
2023-05-16T22:55:57.153Z,8.60
2023-05-16T22:58:24.035Z,8.60
2023-05-16T23:00:51.059Z,8.50
2023-05-16T23:03:17.898Z,8.50
2023-05-16T23:05:44.739Z,8.50
2023-05-16T23:08:11.653Z,8.60
2023-05-16T23:10:38.541Z,8.50
2023-05-16T23:13:05.646Z,8.50
2023-05-16T23:15:32.437Z,8.50
2023-05-16T23:17:59.285Z,8.50
2023-05-16T23:20:26.129Z,8.40
2023-05-16T23:22:53.008Z,8.40
2023-05-16T23:25:19.873Z,8.40
2023-05-16T23:27:46.795Z,8.40
2023-05-16T23:30:14.093Z,8.30
2023-05-16T23:32:41.020Z,8.30
2023-05-16T23:35:08.254Z,8.30
2023-05-16T23:37:35.183Z,8.30
2023-05-16T23:40:01.968Z,8.30
2023-05-16T23:42:28.776Z,8.30
2023-05-16T23:44:55.574Z,8.30
2023-05-16T23:47:23.102Z,8.30
2023-05-16T23:49:53.094Z,8.20
2023-05-16T23:52:20.075Z,8.30
2023-05-16T23:54:46.892Z,8.20
2023-05-16T23:57:13.655Z,8.30
2023-05-16T23:59:41.278Z,8.20
